sensor_id;sensor_type;location;lat;lon;timestamp;P1;durP1;ratioP1;P2;durP2;ratioP2
37971;SDS011;23794;48.234;8.344;2023-04-24T00:01:04;3.03;;;1.00;;
37971;SDS011;23794;48.234;8.344;2023-04-24T00:03:34;1.42;;;0.80;;
37971;SDS011;23794;48.234;8.344;2023-04-24T00:06:01;2.85;;;1.00;;
37971;SDS011;23794;48.234;8.344;2023-04-24T00:08:28;2.00;;;0.80;;
37971;SDS011;23794;48.234;8.344;2023-04-24T00:10:55;0.70;;;0.40;;
37971;SDS011;23794;48.234;8.344;2023-04-24T00:13:22;2.72;;;0.70;;
37971;SDS011;23794;48.234;8.344;2023-04-24T00:15:48;0.80;;;0.50;;
37971;SDS011;23794;48.234;8.344;2023-04-24T00:18:15;2.08;;;0.73;;
37971;SDS011;23794;48.234;8.344;2023-04-24T00:20:42;2.25;;;0.60;;
37971;SDS011;23794;48.234;8.344;2023-04-24T00:23:09;3.08;;;0.63;;
37971;SDS011;23794;48.234;8.344;2023-04-24T00:25:36;1.20;;;0.45;;
37971;SDS011;23794;48.234;8.344;2023-04-24T00:28:06;2.80;;;0.60;;
37971;SDS011;23794;48.234;8.344;2023-04-24T00:30:33;4.25;;;0.75;;
37971;SDS011;23794;48.234;8.344;2023-04-24T00:33:00;2.72;;;0.45;;
37971;SDS011;23794;48.234;8.344;2023-04-24T00:35:26;3.67;;;0.80;;
37971;SDS011;23794;48.234;8.344;2023-04-24T00:37:53;2.90;;;0.65;;
37971;SDS011;23794;48.234;8.344;2023-04-24T00:40:20;2.35;;;1.00;;
37971;SDS011;23794;48.234;8.344;2023-04-24T00:42:46;2.15;;;0.55;;
37971;SDS011;23794;48.234;8.344;2023-04-24T00:45:13;2.15;;;0.60;;
37971;SDS011;23794;48.234;8.344;2023-04-24T00:47:41;1.35;;;0.40;;
37971;SDS011;23794;48.234;8.344;2023-04-24T00:50:08;2.22;;;0.80;;
37971;SDS011;23794;48.234;8.344;2023-04-24T00:52:35;1.77;;;0.50;;
37971;SDS011;23794;48.234;8.344;2023-04-24T00:55:02;1.70;;;0.57;;
37971;SDS011;23794;48.234;8.344;2023-04-24T00:57:29;2.30;;;0.80;;
37971;SDS011;23794;48.234;8.344;2023-04-24T00:59:56;2.08;;;0.55;;
37971;SDS011;23794;48.234;8.344;2023-04-24T01:02:23;3.80;;;0.70;;
37971;SDS011;23794;48.234;8.344;2023-04-24T01:04:51;2.97;;;0.47;;
37971;SDS011;23794;48.234;8.344;2023-04-24T01:07:20;0.77;;;0.32;;
37971;SDS011;23794;48.234;8.344;2023-04-24T01:09:50;1.15;;;0.40;;
37971;SDS011;23794;48.234;8.344;2023-04-24T01:12:19;2.63;;;0.80;;
37971;SDS011;23794;48.234;8.344;2023-04-24T01:14:45;0.68;;;0.47;;
37971;SDS011;23794;48.234;8.344;2023-04-24T01:17:14;2.25;;;0.68;;
37971;SDS011;23794;48.234;8.344;2023-04-24T01:19:41;0.88;;;0.40;;
37971;SDS011;23794;48.234;8.344;2023-04-24T01:22:12;1.42;;;0.63;;
37971;SDS011;23794;48.234;8.344;2023-04-24T01:24:41;2.58;;;0.70;;
37971;SDS011;23794;48.234;8.344;2023-04-24T01:27:11;1.63;;;0.50;;
37971;SDS011;23794;48.234;8.344;2023-04-24T01:29:38;1.67;;;0.40;;
37971;SDS011;23794;48.234;8.344;2023-04-24T01:32:05;1.48;;;0.52;;
37971;SDS011;23794;48.234;8.344;2023-04-24T01:34:31;2.00;;;0.50;;
37971;SDS011;23794;48.234;8.344;2023-04-24T01:36:58;2.05;;;0.85;;
37971;SDS011;23794;48.234;8.344;2023-04-24T01:39:26;0.70;;;0.30;;
37971;SDS011;23794;48.234;8.344;2023-04-24T01:41:54;1.10;;;0.50;;
37971;SDS011;23794;48.234;8.344;2023-04-24T01:44:21;1.48;;;0.50;;
37971;SDS011;23794;48.234;8.344;2023-04-24T01:46:49;2.90;;;0.55;;
37971;SDS011;23794;48.234;8.344;2023-04-24T01:49:15;3.97;;;0.55;;
37971;SDS011;23794;48.234;8.344;2023-04-24T01:51:43;1.35;;;0.40;;
37971;SDS011;23794;48.234;8.344;2023-04-24T01:54:10;1.02;;;0.43;;
37971;SDS011;23794;48.234;8.344;2023-04-24T01:56:39;2.85;;;0.55;;
37971;SDS011;23794;48.234;8.344;2023-04-24T01:59:09;1.13;;;0.40;;
37971;SDS011;23794;48.234;8.344;2023-04-24T02:01:37;1.02;;;0.30;;
37971;SDS011;23794;48.234;8.344;2023-04-24T02:04:05;1.38;;;0.47;;
37971;SDS011;23794;48.234;8.344;2023-04-24T02:06:34;1.02;;;0.50;;
37971;SDS011;23794;48.234;8.344;2023-04-24T02:09:01;1.83;;;0.30;;
37971;SDS011;23794;48.234;8.344;2023-04-24T02:11:29;1.08;;;0.65;;
37971;SDS011;23794;48.234;8.344;2023-04-24T02:13:56;1.42;;;0.30;;
37971;SDS011;23794;48.234;8.344;2023-04-24T02:16:24;1.63;;;0.57;;
37971;SDS011;23794;48.234;8.344;2023-04-24T02:18:51;1.13;;;0.38;;
37971;SDS011;23794;48.234;8.344;2023-04-24T02:21:17;3.13;;;0.82;;
37971;SDS011;23794;48.234;8.344;2023-04-24T02:23:44;1.90;;;0.22;;
37971;SDS011;23794;48.234;8.344;2023-04-24T02:26:11;1.13;;;0.50;;
37971;SDS011;23794;48.234;8.344;2023-04-24T02:28:38;1.58;;;0.40;;
37971;SDS011;23794;48.234;8.344;2023-04-24T02:31:05;0.45;;;0.25;;
37971;SDS011;23794;48.234;8.344;2023-04-24T02:37:08;0.28;;;0.17;;
37971;SDS011;23794;48.234;8.344;2023-04-24T02:39:35;1.55;;;0.40;;
37971;SDS011;23794;48.234;8.344;2023-04-24T02:42:02;0.70;;;0.30;;
37971;SDS011;23794;48.234;8.344;2023-04-24T02:44:29;0.95;;;0.30;;
37971;SDS011;23794;48.234;8.344;2023-04-24T02:46:56;1.65;;;0.40;;
37971;SDS011;23794;48.234;8.344;2023-04-24T02:49:22;1.65;;;0.47;;
37971;SDS011;23794;48.234;8.344;2023-04-24T02:51:49;1.15;;;0.50;;
37971;SDS011;23794;48.234;8.344;2023-04-24T02:54:15;1.63;;;0.55;;
37971;SDS011;23794;48.234;8.344;2023-04-24T02:56:42;3.40;;;1.25;;
37971;SDS011;23794;48.234;8.344;2023-04-24T02:59:08;3.40;;;0.40;;
37971;SDS011;23794;48.234;8.344;2023-04-24T03:01:36;0.47;;;0.40;;
37971;SDS011;23794;48.234;8.344;2023-04-24T03:04:03;2.50;;;0.30;;
37971;SDS011;23794;48.234;8.344;2023-04-24T03:06:30;2.15;;;0.40;;
37971;SDS011;23794;48.234;8.344;2023-04-24T03:08:59;4.03;;;0.77;;
37971;SDS011;23794;48.234;8.344;2023-04-24T03:11:25;0.52;;;0.30;;
37971;SDS011;23794;48.234;8.344;2023-04-24T03:13:52;0.80;;;0.20;;
37971;SDS011;23794;48.234;8.344;2023-04-24T03:16:18;2.80;;;0.40;;
37971;SDS011;23794;48.234;8.344;2023-04-24T03:18:45;2.38;;;0.70;;
37971;SDS011;23794;48.234;8.344;2023-04-24T03:21:12;4.32;;;1.80;;
37971;SDS011;23794;48.234;8.344;2023-04-24T03:23:40;1.25;;;0.28;;
37971;SDS011;23794;48.234;8.344;2023-04-24T03:26:08;0.70;;;0.50;;
37971;SDS011;23794;48.234;8.344;2023-04-24T03:28:39;0.30;;;0.30;;
37971;SDS011;23794;48.234;8.344;2023-04-24T03:31:06;2.75;;;0.40;;
37971;SDS011;23794;48.234;8.344;2023-04-24T03:33:36;1.27;;;0.30;;
37971;SDS011;23794;48.234;8.344;2023-04-24T03:36:03;2.03;;;0.43;;
37971;SDS011;23794;48.234;8.344;2023-04-24T03:38:39;0.38;;;0.22;;
37971;SDS011;23794;48.234;8.344;2023-04-24T03:41:18;1.40;;;0.30;;
37971;SDS011;23794;48.234;8.344;2023-04-24T03:43:48;0.88;;;0.30;;
37971;SDS011;23794;48.234;8.344;2023-04-24T03:46:15;0.82;;;0.45;;
37971;SDS011;23794;48.234;8.344;2023-04-24T03:48:52;2.47;;;0.47;;
37971;SDS011;23794;48.234;8.344;2023-04-24T03:51:22;0.80;;;0.45;;
37971;SDS011;23794;48.234;8.344;2023-04-24T03:53:52;2.45;;;0.50;;
37971;SDS011;23794;48.234;8.344;2023-04-24T03:56:21;0.90;;;0.40;;
37971;SDS011;23794;48.234;8.344;2023-04-24T03:58:48;2.15;;;0.30;;
37971;SDS011;23794;48.234;8.344;2023-04-24T04:01:14;1.17;;;0.60;;
37971;SDS011;23794;48.234;8.344;2023-04-24T04:03:51;4.40;;;0.77;;
37971;SDS011;23794;48.234;8.344;2023-04-24T04:06:21;2.25;;;0.80;;
37971;SDS011;23794;48.234;8.344;2023-04-24T04:08:49;2.10;;;1.00;;
37971;SDS011;23794;48.234;8.344;2023-04-24T04:11:17;2.20;;;1.23;;
37971;SDS011;23794;48.234;8.344;2023-04-24T04:13:44;1.50;;;1.00;;
37971;SDS011;23794;48.234;8.344;2023-04-24T04:16:11;3.78;;;1.70;;
37971;SDS011;23794;48.234;8.344;2023-04-24T04:18:38;1.73;;;1.10;;
37971;SDS011;23794;48.234;8.344;2023-04-24T04:21:06;3.47;;;1.42;;
37971;SDS011;23794;48.234;8.344;2023-04-24T04:23:34;2.10;;;1.40;;
37971;SDS011;23794;48.234;8.344;2023-04-24T04:26:07;3.47;;;1.52;;
37971;SDS011;23794;48.234;8.344;2023-04-24T04:28:47;2.35;;;1.15;;
37971;SDS011;23794;48.234;8.344;2023-04-24T04:31:15;3.08;;;1.25;;
37971;SDS011;23794;48.234;8.344;2023-04-24T04:33:41;3.72;;;1.30;;
37971;SDS011;23794;48.234;8.344;2023-04-24T04:36:09;2.42;;;1.00;;
37971;SDS011;23794;48.234;8.344;2023-04-24T04:38:40;2.00;;;1.20;;
37971;SDS011;23794;48.234;8.344;2023-04-24T04:41:35;2.88;;;1.30;;
37971;SDS011;23794;48.234;8.344;2023-04-24T04:44:01;1.50;;;0.98;;
37971;SDS011;23794;48.234;8.344;2023-04-24T04:46:31;1.90;;;1.10;;
37971;SDS011;23794;48.234;8.344;2023-04-24T04:49:13;3.22;;;1.10;;
37971;SDS011;23794;48.234;8.344;2023-04-24T04:51:43;2.80;;;1.08;;
37971;SDS011;23794;48.234;8.344;2023-04-24T04:54:11;2.95;;;0.88;;
37971;SDS011;23794;48.234;8.344;2023-04-24T04:56:38;2.10;;;1.08;;
37971;SDS011;23794;48.234;8.344;2023-04-24T04:59:04;2.95;;;1.10;;
37971;SDS011;23794;48.234;8.344;2023-04-24T05:01:36;4.07;;;1.50;;
37971;SDS011;23794;48.234;8.344;2023-04-24T05:04:05;1.65;;;1.15;;
37971;SDS011;23794;48.234;8.344;2023-04-24T05:06:32;2.83;;;1.27;;
37971;SDS011;23794;48.234;8.344;2023-04-24T05:08:58;2.58;;;1.30;;
37971;SDS011;23794;48.234;8.344;2023-04-24T05:11:33;1.55;;;1.20;;
37971;SDS011;23794;48.234;8.344;2023-04-24T05:14:01;2.97;;;1.42;;
37971;SDS011;23794;48.234;8.344;2023-04-24T05:16:36;2.83;;;1.63;;
37971;SDS011;23794;48.234;8.344;2023-04-24T05:19:04;2.85;;;1.50;;
37971;SDS011;23794;48.234;8.344;2023-04-24T05:21:38;5.03;;;1.95;;
37971;SDS011;23794;48.234;8.344;2023-04-24T05:24:06;3.03;;;1.40;;
37971;SDS011;23794;48.234;8.344;2023-04-24T05:26:44;2.75;;;1.27;;
37971;SDS011;23794;48.234;8.344;2023-04-24T05:29:13;2.45;;;1.60;;
37971;SDS011;23794;48.234;8.344;2023-04-24T05:31:41;2.20;;;1.35;;
37971;SDS011;23794;48.234;8.344;2023-04-24T05:34:07;2.40;;;1.33;;
37971;SDS011;23794;48.234;8.344;2023-04-24T05:36:38;3.03;;;1.40;;
37971;SDS011;23794;48.234;8.344;2023-04-24T05:39:04;1.90;;;1.30;;
37971;SDS011;23794;48.234;8.344;2023-04-24T05:41:33;2.70;;;1.40;;
37971;SDS011;23794;48.234;8.344;2023-04-24T05:44:00;3.45;;;1.80;;
37971;SDS011;23794;48.234;8.344;2023-04-24T05:46:27;5.20;;;1.80;;
37971;SDS011;23794;48.234;8.344;2023-04-24T05:48:54;2.15;;;1.52;;
37971;SDS011;23794;48.234;8.344;2023-04-24T05:51:21;2.70;;;2.00;;
37971;SDS011;23794;48.234;8.344;2023-04-24T05:53:48;2.30;;;1.70;;
37971;SDS011;23794;48.234;8.344;2023-04-24T05:56:14;2.22;;;1.48;;
37971;SDS011;23794;48.234;8.344;2023-04-24T05:58:41;2.72;;;1.73;;
37971;SDS011;23794;48.234;8.344;2023-04-24T06:01:08;3.05;;;1.83;;
37971;SDS011;23794;48.234;8.344;2023-04-24T06:03:37;2.33;;;1.50;;
37971;SDS011;23794;48.234;8.344;2023-04-24T06:06:06;2.83;;;1.73;;
37971;SDS011;23794;48.234;8.344;2023-04-24T06:08:34;1.88;;;1.60;;
37971;SDS011;23794;48.234;8.344;2023-04-24T06:11:01;2.88;;;1.67;;
37971;SDS011;23794;48.234;8.344;2023-04-24T06:13:31;2.13;;;1.40;;
37971;SDS011;23794;48.234;8.344;2023-04-24T06:16:20;2.78;;;1.77;;
37971;SDS011;23794;48.234;8.344;2023-04-24T06:18:53;2.25;;;1.65;;
37971;SDS011;23794;48.234;8.344;2023-04-24T06:21:21;4.72;;;1.60;;
37971;SDS011;23794;48.234;8.344;2023-04-24T06:23:49;3.10;;;1.80;;
37971;SDS011;23794;48.234;8.344;2023-04-24T06:26:15;3.35;;;1.60;;
37971;SDS011;23794;48.234;8.344;2023-04-24T06:28:42;2.30;;;1.83;;
37971;SDS011;23794;48.234;8.344;2023-04-24T06:31:09;2.80;;;1.45;;
37971;SDS011;23794;48.234;8.344;2023-04-24T06:33:35;3.08;;;1.75;;
37971;SDS011;23794;48.234;8.344;2023-04-24T06:36:02;2.58;;;1.77;;
37971;SDS011;23794;48.234;8.344;2023-04-24T06:38:30;3.20;;;2.20;;
37971;SDS011;23794;48.234;8.344;2023-04-24T06:40:56;2.67;;;2.00;;
37971;SDS011;23794;48.234;8.344;2023-04-24T06:43:23;3.83;;;2.40;;
37971;SDS011;23794;48.234;8.344;2023-04-24T06:45:49;6.63;;;1.92;;
37971;SDS011;23794;48.234;8.344;2023-04-24T06:48:16;5.10;;;2.58;;
37971;SDS011;23794;48.234;8.344;2023-04-24T06:50:42;4.88;;;1.85;;
37971;SDS011;23794;48.234;8.344;2023-04-24T06:53:09;2.65;;;1.30;;
37971;SDS011;23794;48.234;8.344;2023-04-24T06:55:37;3.78;;;1.40;;
37971;SDS011;23794;48.234;8.344;2023-04-24T06:58:04;1.75;;;1.00;;
37971;SDS011;23794;48.234;8.344;2023-04-24T07:00:31;1.08;;;0.73;;
37971;SDS011;23794;48.234;8.344;2023-04-24T07:02:57;5.47;;;1.13;;
37971;SDS011;23794;48.234;8.344;2023-04-24T07:05:24;1.75;;;1.15;;
37971;SDS011;23794;48.234;8.344;2023-04-24T07:07:51;1.55;;;1.02;;
37971;SDS011;23794;48.234;8.344;2023-04-24T07:10:17;1.65;;;1.10;;
37971;SDS011;23794;48.234;8.344;2023-04-24T07:12:44;2.70;;;1.50;;
37971;SDS011;23794;48.234;8.344;2023-04-24T07:15:11;2.97;;;1.30;;
37971;SDS011;23794;48.234;8.344;2023-04-24T07:17:37;2.10;;;1.40;;
37971;SDS011;23794;48.234;8.344;2023-04-24T07:20:05;3.28;;;1.60;;
37971;SDS011;23794;48.234;8.344;2023-04-24T07:22:33;4.38;;;1.90;;
37971;SDS011;23794;48.234;8.344;2023-04-24T07:25:00;2.75;;;1.52;;
37971;SDS011;23794;48.234;8.344;2023-04-24T07:27:27;1.60;;;1.33;;
37971;SDS011;23794;48.234;8.344;2023-04-24T07:29:54;3.85;;;2.00;;
37971;SDS011;23794;48.234;8.344;2023-04-24T07:32:20;3.30;;;1.55;;
37971;SDS011;23794;48.234;8.344;2023-04-24T07:34:47;3.17;;;1.65;;
37971;SDS011;23794;48.234;8.344;2023-04-24T07:37:13;2.45;;;1.40;;
37971;SDS011;23794;48.234;8.344;2023-04-24T07:39:40;2.75;;;1.83;;
37971;SDS011;23794;48.234;8.344;2023-04-24T07:42:07;2.28;;;1.50;;
37971;SDS011;23794;48.234;8.344;2023-04-24T07:44:33;5.32;;;1.90;;
37971;SDS011;23794;48.234;8.344;2023-04-24T07:47:00;5.15;;;1.95;;
37971;SDS011;23794;48.234;8.344;2023-04-24T07:49:26;3.08;;;2.00;;
37971;SDS011;23794;48.234;8.344;2023-04-24T07:51:54;2.55;;;1.65;;
37971;SDS011;23794;48.234;8.344;2023-04-24T07:54:20;2.67;;;1.83;;
37971;SDS011;23794;48.234;8.344;2023-04-24T07:56:47;4.40;;;1.92;;
37971;SDS011;23794;48.234;8.344;2023-04-24T07:59:14;2.33;;;1.75;;
37971;SDS011;23794;48.234;8.344;2023-04-24T08:01:41;4.45;;;1.92;;
37971;SDS011;23794;48.234;8.344;2023-04-24T08:04:07;3.63;;;2.00;;
37971;SDS011;23794;48.234;8.344;2023-04-24T08:06:34;3.55;;;1.70;;
37971;SDS011;23794;48.234;8.344;2023-04-24T08:09:01;2.08;;;1.75;;
37971;SDS011;23794;48.234;8.344;2023-04-24T08:11:28;2.35;;;1.80;;
37971;SDS011;23794;48.234;8.344;2023-04-24T08:13:54;4.43;;;2.05;;
37971;SDS011;23794;48.234;8.344;2023-04-24T08:16:21;3.33;;;2.15;;
37971;SDS011;23794;48.234;8.344;2023-04-24T08:18:50;2.90;;;2.10;;
37971;SDS011;23794;48.234;8.344;2023-04-24T08:21:16;5.82;;;2.00;;
37971;SDS011;23794;48.234;8.344;2023-04-24T08:23:44;2.28;;;1.85;;
37971;SDS011;23794;48.234;8.344;2023-04-24T08:26:12;3.17;;;1.80;;
37971;SDS011;23794;48.234;8.344;2023-04-24T08:28:39;3.80;;;1.90;;
37971;SDS011;23794;48.234;8.344;2023-04-24T08:31:05;4.88;;;2.22;;
37971;SDS011;23794;48.234;8.344;2023-04-24T08:33:32;6.07;;;2.28;;
37971;SDS011;23794;48.234;8.344;2023-04-24T08:36:04;3.28;;;1.90;;
37971;SDS011;23794;48.234;8.344;2023-04-24T08:38:32;2.65;;;1.73;;
37971;SDS011;23794;48.234;8.344;2023-04-24T08:41:00;2.60;;;2.03;;
37971;SDS011;23794;48.234;8.344;2023-04-24T08:43:27;2.85;;;1.67;;
37971;SDS011;23794;48.234;8.344;2023-04-24T08:45:55;3.53;;;2.15;;
37971;SDS011;23794;48.234;8.344;2023-04-24T08:48:23;4.75;;;2.10;;
37971;SDS011;23794;48.234;8.344;2023-04-24T08:50:57;2.85;;;1.75;;
37971;SDS011;23794;48.234;8.344;2023-04-24T08:53:27;2.75;;;1.80;;
37971;SDS011;23794;48.234;8.344;2023-04-24T08:55:54;5.20;;;1.83;;
37971;SDS011;23794;48.234;8.344;2023-04-24T08:58:23;3.05;;;1.60;;
37971;SDS011;23794;48.234;8.344;2023-04-24T09:00:52;3.47;;;1.83;;
37971;SDS011;23794;48.234;8.344;2023-04-24T09:03:21;3.35;;;1.63;;
37971;SDS011;23794;48.234;8.344;2023-04-24T09:05:48;2.97;;;1.60;;
37971;SDS011;23794;48.234;8.344;2023-04-24T09:08:17;2.13;;;1.50;;
37971;SDS011;23794;48.234;8.344;2023-04-24T09:10:45;3.10;;;1.60;;
37971;SDS011;23794;48.234;8.344;2023-04-24T09:13:15;2.00;;;1.57;;
37971;SDS011;23794;48.234;8.344;2023-04-24T09:15:42;1.98;;;1.35;;
37971;SDS011;23794;48.234;8.344;2023-04-24T09:18:09;2.60;;;1.60;;
37971;SDS011;23794;48.234;8.344;2023-04-24T09:20:56;4.38;;;2.33;;
37971;SDS011;23794;48.234;8.344;2023-04-24T09:23:27;4.82;;;1.80;;
37971;SDS011;23794;48.234;8.344;2023-04-24T09:25:54;2.38;;;1.77;;
37971;SDS011;23794;48.234;8.344;2023-04-24T09:28:32;3.00;;;1.77;;
37971;SDS011;23794;48.234;8.344;2023-04-24T09:31:04;3.70;;;1.80;;
37971;SDS011;23794;48.234;8.344;2023-04-24T09:33:30;3.50;;;2.00;;
37971;SDS011;23794;48.234;8.344;2023-04-24T09:35:57;3.17;;;1.58;;
37971;SDS011;23794;48.234;8.344;2023-04-24T09:38:37;2.65;;;1.35;;
37971;SDS011;23794;48.234;8.344;2023-04-24T09:41:05;3.33;;;2.03;;
37971;SDS011;23794;48.234;8.344;2023-04-24T09:43:33;2.03;;;1.20;;
37971;SDS011;23794;48.234;8.344;2023-04-24T09:46:05;3.60;;;1.17;;
37971;SDS011;23794;48.234;8.344;2023-04-24T09:48:34;2.55;;;1.55;;
37971;SDS011;23794;48.234;8.344;2023-04-24T09:51:02;2.38;;;1.00;;
37971;SDS011;23794;48.234;8.344;2023-04-24T09:53:30;2.08;;;1.10;;
37971;SDS011;23794;48.234;8.344;2023-04-24T09:56:05;3.15;;;0.98;;
37971;SDS011;23794;48.234;8.344;2023-04-24T09:58:34;2.20;;;1.20;;
37971;SDS011;23794;48.234;8.344;2023-04-24T10:01:03;2.35;;;1.08;;
37971;SDS011;23794;48.234;8.344;2023-04-24T10:03:31;1.77;;;1.05;;
37971;SDS011;23794;48.234;8.344;2023-04-24T10:05:59;2.03;;;0.90;;
37971;SDS011;23794;48.234;8.344;2023-04-24T10:08:27;6.20;;;1.52;;
37971;SDS011;23794;48.234;8.344;2023-04-24T10:10:59;2.08;;;1.08;;
37971;SDS011;23794;48.234;8.344;2023-04-24T10:13:26;1.80;;;1.00;;
37971;SDS011;23794;48.234;8.344;2023-04-24T10:15:54;1.25;;;0.90;;
37971;SDS011;23794;48.234;8.344;2023-04-24T10:18:22;1.98;;;1.33;;
37971;SDS011;23794;48.234;8.344;2023-04-24T10:20:50;3.05;;;1.27;;
37971;SDS011;23794;48.234;8.344;2023-04-24T10:23:18;2.30;;;1.20;;
37971;SDS011;23794;48.234;8.344;2023-04-24T10:25:45;3.15;;;1.23;;
37971;SDS011;23794;48.234;8.344;2023-04-24T10:28:12;3.08;;;1.00;;
37971;SDS011;23794;48.234;8.344;2023-04-24T10:30:39;2.80;;;0.93;;
37971;SDS011;23794;48.234;8.344;2023-04-24T10:33:08;3.67;;;1.17;;
37971;SDS011;23794;48.234;8.344;2023-04-24T10:35:37;2.65;;;1.10;;
37971;SDS011;23794;48.234;8.344;2023-04-24T10:38:08;2.60;;;1.02;;
37971;SDS011;23794;48.234;8.344;2023-04-24T10:40:37;1.63;;;1.10;;
37971;SDS011;23794;48.234;8.344;2023-04-24T10:43:07;2.28;;;1.30;;
37971;SDS011;23794;48.234;8.344;2023-04-24T10:45:37;1.90;;;1.02;;
37971;SDS011;23794;48.234;8.344;2023-04-24T10:48:05;2.00;;;1.10;;
37971;SDS011;23794;48.234;8.344;2023-04-24T10:50:52;1.75;;;1.10;;
37971;SDS011;23794;48.234;8.344;2023-04-24T10:53:21;4.30;;;1.10;;
37971;SDS011;23794;48.234;8.344;2023-04-24T10:55:50;3.08;;;0.70;;
37971;SDS011;23794;48.234;8.344;2023-04-24T10:58:21;6.18;;;2.10;;
37971;SDS011;23794;48.234;8.344;2023-04-24T11:00:55;2.35;;;1.10;;
37971;SDS011;23794;48.234;8.344;2023-04-24T11:03:28;2.80;;;0.90;;
37971;SDS011;23794;48.234;8.344;2023-04-24T11:06:00;2.10;;;1.05;;
37971;SDS011;23794;48.234;8.344;2023-04-24T11:08:36;2.35;;;0.75;;
37971;SDS011;23794;48.234;8.344;2023-04-24T11:11:08;1.25;;;0.90;;
37971;SDS011;23794;48.234;8.344;2023-04-24T11:14:00;0.90;;;0.60;;
37971;SDS011;23794;48.234;8.344;2023-04-24T11:16:29;1.30;;;0.60;;
37971;SDS011;23794;48.234;8.344;2023-04-24T11:24:32;1.25;;;0.80;;
37971;SDS011;23794;48.234;8.344;2023-04-24T11:27:05;2.22;;;0.90;;
37971;SDS011;23794;48.234;8.344;2023-04-24T11:29:45;1.10;;;0.45;;
37971;SDS011;23794;48.234;8.344;2023-04-24T11:35:01;2.22;;;1.15;;
37971;SDS011;23794;48.234;8.344;2023-04-24T11:37:29;1.48;;;0.52;;
37971;SDS011;23794;48.234;8.344;2023-04-24T11:40:00;3.70;;;1.00;;
37971;SDS011;23794;48.234;8.344;2023-04-24T11:42:28;3.22;;;0.93;;
37971;SDS011;23794;48.234;8.344;2023-04-24T11:44:59;1.50;;;0.80;;
37971;SDS011;23794;48.234;8.344;2023-04-24T11:47:30;2.10;;;0.98;;
37971;SDS011;23794;48.234;8.344;2023-04-24T11:50:00;1.73;;;0.73;;
37971;SDS011;23794;48.234;8.344;2023-04-24T11:52:28;1.00;;;0.50;;
37971;SDS011;23794;48.234;8.344;2023-04-24T11:54:55;2.33;;;0.88;;
37971;SDS011;23794;48.234;8.344;2023-04-24T11:57:23;2.17;;;0.90;;
37971;SDS011;23794;48.234;8.344;2023-04-24T11:59:54;1.98;;;0.80;;
37971;SDS011;23794;48.234;8.344;2023-04-24T12:02:23;2.30;;;1.05;;
37971;SDS011;23794;48.234;8.344;2023-04-24T12:04:52;2.55;;;1.13;;
37971;SDS011;23794;48.234;8.344;2023-04-24T12:07:20;2.35;;;0.80;;
37971;SDS011;23794;48.234;8.344;2023-04-24T12:09:48;1.85;;;0.80;;
37971;SDS011;23794;48.234;8.344;2023-04-24T12:12:24;1.30;;;0.68;;
37971;SDS011;23794;48.234;8.344;2023-04-24T12:14:53;3.67;;;0.80;;
37971;SDS011;23794;48.234;8.344;2023-04-24T12:17:25;2.78;;;0.70;;
37971;SDS011;23794;48.234;8.344;2023-04-24T12:19:58;2.00;;;0.75;;
37971;SDS011;23794;48.234;8.344;2023-04-24T12:22:26;2.50;;;1.10;;
37971;SDS011;23794;48.234;8.344;2023-04-24T12:25:11;3.17;;;0.90;;
37971;SDS011;23794;48.234;8.344;2023-04-24T12:27:39;1.63;;;0.68;;
37971;SDS011;23794;48.234;8.344;2023-04-24T12:30:05;2.55;;;0.65;;
37971;SDS011;23794;48.234;8.344;2023-04-24T12:32:42;1.35;;;0.60;;
37971;SDS011;23794;48.234;8.344;2023-04-24T12:35:09;1.90;;;1.00;;
37971;SDS011;23794;48.234;8.344;2023-04-24T12:37:36;2.88;;;1.00;;
37971;SDS011;23794;48.234;8.344;2023-04-24T12:40:07;1.85;;;0.90;;
37971;SDS011;23794;48.234;8.344;2023-04-24T12:42:35;2.72;;;0.60;;
37971;SDS011;23794;48.234;8.344;2023-04-24T12:45:07;2.92;;;0.60;;
37971;SDS011;23794;48.234;8.344;2023-04-24T12:47:34;5.68;;;1.33;;
37971;SDS011;23794;48.234;8.344;2023-04-24T12:50:01;2.83;;;1.08;;
37971;SDS011;23794;48.234;8.344;2023-04-24T12:52:28;1.75;;;0.75;;
37971;SDS011;23794;48.234;8.344;2023-04-24T12:54:57;2.83;;;0.90;;
37971;SDS011;23794;48.234;8.344;2023-04-24T12:57:25;1.70;;;0.80;;
37971;SDS011;23794;48.234;8.344;2023-04-24T12:59:53;2.30;;;0.63;;
37971;SDS011;23794;48.234;8.344;2023-04-24T13:02:21;2.03;;;1.00;;
37971;SDS011;23794;48.234;8.344;2023-04-24T13:04:49;4.00;;;0.90;;
37971;SDS011;23794;48.234;8.344;2023-04-24T13:07:16;4.95;;;1.27;;
37971;SDS011;23794;48.234;8.344;2023-04-24T13:09:43;2.90;;;1.13;;
37971;SDS011;23794;48.234;8.344;2023-04-24T13:12:11;1.63;;;0.80;;
37971;SDS011;23794;48.234;8.344;2023-04-24T13:14:38;2.20;;;1.08;;
37971;SDS011;23794;48.234;8.344;2023-04-24T13:17:04;2.67;;;0.75;;
37971;SDS011;23794;48.234;8.344;2023-04-24T13:19:35;1.52;;;0.77;;
37971;SDS011;23794;48.234;8.344;2023-04-24T13:24:30;1.55;;;0.80;;
37971;SDS011;23794;48.234;8.344;2023-04-24T13:26:57;2.03;;;0.73;;
37971;SDS011;23794;48.234;8.344;2023-04-24T13:29:24;1.45;;;0.77;;
37971;SDS011;23794;48.234;8.344;2023-04-24T13:31:51;3.60;;;0.95;;
37971;SDS011;23794;48.234;8.344;2023-04-24T13:34:17;4.47;;;1.00;;
37971;SDS011;23794;48.234;8.344;2023-04-24T13:36:44;1.85;;;1.05;;
37971;SDS011;23794;48.234;8.344;2023-04-24T13:39:11;2.00;;;0.98;;
37971;SDS011;23794;48.234;8.344;2023-04-24T13:41:38;1.80;;;0.80;;
37971;SDS011;23794;48.234;8.344;2023-04-24T13:44:06;1.30;;;0.80;;
37971;SDS011;23794;48.234;8.344;2023-04-24T13:46:33;1.75;;;0.70;;
37971;SDS011;23794;48.234;8.344;2023-04-24T13:48:59;1.20;;;0.73;;
37971;SDS011;23794;48.234;8.344;2023-04-24T13:51:26;1.83;;;0.80;;
37971;SDS011;23794;48.234;8.344;2023-04-24T13:53:53;2.85;;;0.57;;
37971;SDS011;23794;48.234;8.344;2023-04-24T13:56:20;4.82;;;1.10;;
37971;SDS011;23794;48.234;8.344;2023-04-24T13:58:48;1.70;;;0.63;;
37971;SDS011;23794;48.234;8.344;2023-04-24T14:01:14;3.25;;;1.52;;
37971;SDS011;23794;48.234;8.344;2023-04-24T14:03:42;3.13;;;1.17;;
37971;SDS011;23794;48.234;8.344;2023-04-24T14:06:10;2.47;;;0.90;;
37971;SDS011;23794;48.234;8.344;2023-04-24T14:08:37;2.22;;;0.98;;
37971;SDS011;23794;48.234;8.344;2023-04-24T14:11:03;3.40;;;1.17;;
37971;SDS011;23794;48.234;8.344;2023-04-24T14:13:30;4.63;;;0.70;;
37971;SDS011;23794;48.234;8.344;2023-04-24T14:15:57;1.90;;;0.90;;
37971;SDS011;23794;48.234;8.344;2023-04-24T14:18:24;2.10;;;1.10;;
37971;SDS011;23794;48.234;8.344;2023-04-24T14:20:50;1.52;;;0.90;;
37971;SDS011;23794;48.234;8.344;2023-04-24T14:23:17;1.88;;;1.13;;
37971;SDS011;23794;48.234;8.344;2023-04-24T14:25:44;5.50;;;2.70;;
37971;SDS011;23794;48.234;8.344;2023-04-24T14:28:10;2.90;;;1.30;;
37971;SDS011;23794;48.234;8.344;2023-04-24T14:30:37;4.45;;;1.40;;
37971;SDS011;23794;48.234;8.344;2023-04-24T14:33:04;1.25;;;1.05;;
37971;SDS011;23794;48.234;8.344;2023-04-24T14:35:30;1.90;;;1.20;;
37971;SDS011;23794;48.234;8.344;2023-04-24T14:37:59;3.50;;;1.30;;
37971;SDS011;23794;48.234;8.344;2023-04-24T14:40:25;2.80;;;1.50;;
37971;SDS011;23794;48.234;8.344;2023-04-24T14:43:12;2.38;;;1.33;;
37971;SDS011;23794;48.234;8.344;2023-04-24T14:45:38;3.55;;;1.30;;
37971;SDS011;23794;48.234;8.344;2023-04-24T14:48:07;2.53;;;1.10;;
37971;SDS011;23794;48.234;8.344;2023-04-24T14:50:35;1.48;;;0.90;;
37971;SDS011;23794;48.234;8.344;2023-04-24T14:53:01;2.45;;;1.38;;
37971;SDS011;23794;48.234;8.344;2023-04-24T14:55:28;2.45;;;1.08;;
37971;SDS011;23794;48.234;8.344;2023-04-24T14:57:55;1.83;;;1.25;;
37971;SDS011;23794;48.234;8.344;2023-04-24T15:00:22;2.50;;;1.10;;
37971;SDS011;23794;48.234;8.344;2023-04-24T15:02:52;3.77;;;1.23;;
37971;SDS011;23794;48.234;8.344;2023-04-24T15:05:19;1.90;;;1.00;;
37971;SDS011;23794;48.234;8.344;2023-04-24T15:07:46;2.25;;;1.55;;
37971;SDS011;23794;48.234;8.344;2023-04-24T15:10:12;1.88;;;0.85;;